createdAt,value
2023-03-18T00:01:29.759Z,13.17
2023-03-18T00:03:58.340Z,13.00
2023-03-18T00:06:27.238Z,12.50
2023-03-18T00:08:55.863Z,12.97
2023-03-18T00:11:27.076Z,12.50
2023-03-18T00:13:56.407Z,12.80
2023-03-18T00:16:24.624Z,13.43
2023-03-18T00:18:54.721Z,13.33
2023-03-18T00:21:23.562Z,13.07
2023-03-18T00:23:57.041Z,14.00
2023-03-18T00:26:26.126Z,13.57
2023-03-18T00:28:58.026Z,14.03
2023-03-18T00:31:27.912Z,14.23
2023-03-18T00:33:57.949Z,13.30
2023-03-18T00:36:26.795Z,14.23
2023-03-18T00:38:58.093Z,14.10
2023-03-18T00:41:28.240Z,14.03
2023-03-18T00:43:57.049Z,14.87
2023-03-18T00:46:27.127Z,14.77
2023-03-18T00:49:00.431Z,14.20
2023-03-18T00:51:30.462Z,14.50
2023-03-18T00:54:01.968Z,15.73
2023-03-18T00:56:33.883Z,14.77
2023-03-18T00:59:02.400Z,15.00
2023-03-18T01:01:31.406Z,15.27
2023-03-18T01:04:02.089Z,15.10
2023-03-18T01:06:34.035Z,15.17
2023-03-18T01:09:03.112Z,16.27
2023-03-18T01:11:33.469Z,15.77
2023-03-18T01:14:02.281Z,15.37
2023-03-18T01:16:31.306Z,16.57
2023-03-18T01:19:01.484Z,16.70
2023-03-18T01:21:29.530Z,16.67
2023-03-18T01:23:57.957Z,16.50
2023-03-18T01:26:26.809Z,17.30
2023-03-18T01:28:54.965Z,17.83
2023-03-18T01:31:24.340Z,17.80
2023-03-18T01:33:53.054Z,16.90
2023-03-18T01:36:23.302Z,17.33
2023-03-18T01:38:51.542Z,17.03
2023-03-18T01:41:20.495Z,17.47
2023-03-18T01:43:48.631Z,17.97
2023-03-18T01:46:35.695Z,18.57
2023-03-18T01:49:08.143Z,18.17
2023-03-18T01:51:38.919Z,17.73
2023-03-18T01:54:09.163Z,17.73
2023-03-18T01:56:40.380Z,17.67
2023-03-18T01:59:10.612Z,17.77
2023-03-18T02:01:45.164Z,18.40
2023-03-18T02:06:43.267Z,18.37
2023-03-18T02:09:13.084Z,18.43
2023-03-18T02:11:44.997Z,19.43
2023-03-18T02:14:16.262Z,19.17
2023-03-18T02:16:48.841Z,20.23
2023-03-18T02:19:30.304Z,18.83
2023-03-18T02:22:19.173Z,18.63
2023-03-18T02:24:54.535Z,19.10
2023-03-18T02:27:26.681Z,18.33
2023-03-18T02:29:58.284Z,18.27
2023-03-18T02:32:29.781Z,19.13
2023-03-18T02:35:01.441Z,19.17
2023-03-18T02:37:29.658Z,19.37
2023-03-18T02:40:12.665Z,20.40
2023-03-18T02:42:42.316Z,19.93
2023-03-18T02:45:20.676Z,20.83
2023-03-18T02:47:50.295Z,20.60
2023-03-18T02:50:20.590Z,19.70
2023-03-18T02:52:50.997Z,20.53
2023-03-18T02:55:19.249Z,20.73
2023-03-18T02:57:49.473Z,20.10
2023-03-18T03:00:18.565Z,19.73
2023-03-18T03:02:46.763Z,20.00
2023-03-18T03:05:15.502Z,19.93
2023-03-18T03:07:43.954Z,18.87
2023-03-18T03:10:13.276Z,18.60
2023-03-18T03:12:41.792Z,18.90
2023-03-18T03:15:12.762Z,21.37
2023-03-18T03:17:41.760Z,20.33
2023-03-18T03:20:11.317Z,20.03
2023-03-18T03:22:39.803Z,19.57
2023-03-18T03:25:09.865Z,21.17
2023-03-18T03:27:39.012Z,20.13
2023-03-18T03:30:09.809Z,19.90
2023-03-18T03:32:40.049Z,18.63
2023-03-18T03:35:09.491Z,19.03
2023-03-18T03:37:37.778Z,19.67
2023-03-18T03:40:08.601Z,18.70
2023-03-18T03:42:37.128Z,18.60
2023-03-18T03:45:08.001Z,18.47
2023-03-18T03:47:38.292Z,18.40
2023-03-18T03:50:07.231Z,18.13
2023-03-18T03:52:35.612Z,18.37
2023-03-18T03:55:04.257Z,18.47
2023-03-18T03:57:32.645Z,19.27
2023-03-18T04:00:01.964Z,19.27
2023-03-18T04:02:30.317Z,17.97
2023-03-18T04:05:00.402Z,19.23
2023-03-18T04:07:29.304Z,18.83
2023-03-18T04:09:57.378Z,20.40
2023-03-18T04:12:25.759Z,19.40
2023-03-18T04:14:54.159Z,20.40
2023-03-18T04:17:25.676Z,19.87
2023-03-18T04:19:53.806Z,17.87
2023-03-18T04:22:24.170Z,20.30
2023-03-18T04:24:52.937Z,19.40
2023-03-18T04:27:22.684Z,19.83
2023-03-18T04:29:51.234Z,20.50
2023-03-18T04:32:19.370Z,19.77
2023-03-18T04:34:47.666Z,19.00
2023-03-18T04:37:20.075Z,18.83
2023-03-18T04:39:50.060Z,20.07
2023-03-18T04:42:18.813Z,20.00
2023-03-18T04:44:47.137Z,19.97
2023-03-18T04:47:15.507Z,20.40
2023-03-18T04:49:44.026Z,20.77
2023-03-18T04:52:13.179Z,20.10
2023-03-18T04:54:43.114Z,20.27
2023-03-18T04:57:13.242Z,20.13
2023-03-18T04:59:42.319Z,20.83
2023-03-18T05:02:10.950Z,20.43
2023-03-18T05:04:39.447Z,20.53
2023-03-18T05:07:07.779Z,21.47
2023-03-18T05:09:36.403Z,20.67
2023-03-18T05:12:04.698Z,21.40
2023-03-18T05:14:34.683Z,21.27
2023-03-18T05:17:04.522Z,21.50
2023-03-18T05:19:33.619Z,21.50
2023-03-18T05:22:01.844Z,22.17
2023-03-18T05:24:35.197Z,21.63
2023-03-18T05:27:03.418Z,21.40
2023-03-18T05:29:33.428Z,22.10
2023-03-18T05:32:01.636Z,22.13
2023-03-18T05:34:29.929Z,21.50
2023-03-18T05:37:00.877Z,22.73
2023-03-18T05:39:29.370Z,23.43
2023-03-18T05:41:58.281Z,23.00
2023-03-18T05:44:27.305Z,23.93
2023-03-18T05:46:57.902Z,23.37
2023-03-18T05:49:27.416Z,23.23
2023-03-18T05:51:56.526Z,23.40
2023-03-18T05:54:26.003Z,22.70
2023-03-18T05:56:56.320Z,24.30
2023-03-18T05:59:27.707Z,22.37
2023-03-18T06:01:57.915Z,23.57
2023-03-18T06:04:27.254Z,22.70
2023-03-18T06:06:55.684Z,23.40
2023-03-18T06:09:24.080Z,22.40
2023-03-18T06:11:52.233Z,22.73
2023-03-18T06:14:20.685Z,23.73
2023-03-18T06:16:49.575Z,22.20
2023-03-18T06:19:19.566Z,23.20
2023-03-18T06:21:47.685Z,24.23
2023-03-18T06:24:16.297Z,23.87
2023-03-18T06:26:44.848Z,24.27
2023-03-18T06:29:13.180Z,23.87
2023-03-18T06:31:41.473Z,22.27
2023-03-18T06:34:09.541Z,23.83
2023-03-18T06:36:39.513Z,22.17
2023-03-18T06:39:08.364Z,22.33
2023-03-18T06:41:36.413Z,21.73
2023-03-18T06:44:05.258Z,22.90
2023-03-18T06:46:33.913Z,20.63
2023-03-18T06:49:02.399Z,18.53
2023-03-18T06:51:30.463Z,19.40
2023-03-18T06:54:00.503Z,19.47
2023-03-18T06:56:28.728Z,15.30
2023-03-18T06:58:58.284Z,16.97
2023-03-18T07:01:27.123Z,14.93
2023-03-18T07:03:55.729Z,15.20
2023-03-18T07:06:24.423Z,15.90
2023-03-18T07:08:53.150Z,14.43
2023-03-18T07:11:23.280Z,12.93
2023-03-18T07:13:51.724Z,12.60
2023-03-18T07:16:20.594Z,12.60
2023-03-18T07:18:48.865Z,12.20
2023-03-18T07:21:17.902Z,11.63
2023-03-18T07:23:46.500Z,12.13
2023-03-18T07:26:14.734Z,12.17
2023-03-18T07:28:44.285Z,12.07
2023-03-18T07:31:13.097Z,11.37
2023-03-18T07:33:41.550Z,12.03
2023-03-18T07:36:10.794Z,11.67
2023-03-18T07:38:40.207Z,11.80
2023-03-18T07:41:08.468Z,12.07
2023-03-18T07:43:37.560Z,11.67
2023-03-18T07:46:07.505Z,11.63
2023-03-18T07:48:38.405Z,12.50
2023-03-18T07:51:07.058Z,12.97
2023-03-18T07:53:38.601Z,13.47
2023-03-18T07:56:08.052Z,12.97
2023-03-18T07:58:36.405Z,13.67
2023-03-18T08:01:04.682Z,14.03
2023-03-18T08:03:34.956Z,14.70
2023-03-18T08:06:03.533Z,14.33
2023-03-18T08:08:32.205Z,14.07
2023-03-18T08:11:02.534Z,14.80
2023-03-18T08:13:30.627Z,14.87
2023-03-18T08:15:59.107Z,15.27
2023-03-18T08:18:27.354Z,14.33
2023-03-18T08:20:57.855Z,15.63
2023-03-18T08:23:26.413Z,16.20
2023-03-18T08:25:54.929Z,14.97
2023-03-18T08:28:23.896Z,15.00
2023-03-18T08:30:57.226Z,14.43
2023-03-18T08:33:26.835Z,14.90
2023-03-18T08:35:58.097Z,14.07
2023-03-18T08:38:29.220Z,14.07
2023-03-18T08:41:02.191Z,14.03
2023-03-18T08:43:30.924Z,14.23
2023-03-18T08:45:59.265Z,13.80
2023-03-18T08:48:30.816Z,13.83
2023-03-18T08:51:01.727Z,14.20
2023-03-18T08:53:30.001Z,13.47
2023-03-18T08:58:51.960Z,14.50
2023-03-18T09:01:22.148Z,14.63
2023-03-18T09:03:51.016Z,13.50
2023-03-18T09:06:24.046Z,13.43
2023-03-18T09:08:52.357Z,14.13
2023-03-18T09:11:20.611Z,13.17
2023-03-18T09:13:49.589Z,14.10
2023-03-18T09:16:18.576Z,14.13
2023-03-18T09:18:58.339Z,14.77
2023-03-18T09:21:32.086Z,15.20
2023-03-18T09:24:10.678Z,14.07
2023-03-18T09:26:39.481Z,15.37
2023-03-18T09:29:07.708Z,15.63
2023-03-18T09:31:39.214Z,15.60
2023-03-18T09:34:07.298Z,16.67
2023-03-18T09:36:36.846Z,15.47
2023-03-18T09:39:09.881Z,16.70
2023-03-18T09:41:48.398Z,16.23
2023-03-18T09:44:24.427Z,15.47
2023-03-18T09:47:18.785Z,16.73
2023-03-18T09:50:14.107Z,16.10
2023-03-18T09:52:54.158Z,16.63
2023-03-18T09:55:30.655Z,16.10
2023-03-18T09:58:03.261Z,16.07
2023-03-18T10:00:35.272Z,16.73
2023-03-18T10:03:10.144Z,16.40
2023-03-18T10:05:52.252Z,16.23
2023-03-18T10:08:36.260Z,16.27
2023-03-18T10:11:22.463Z,15.23
2023-03-18T10:14:06.965Z,15.80
2023-03-18T10:16:48.812Z,15.53
2023-03-18T10:19:20.011Z,15.43
2023-03-18T10:21:54.819Z,16.00
2023-03-18T10:24:34.096Z,15.07
2023-03-18T10:27:10.713Z,14.37
2023-03-18T10:29:43.861Z,14.90
2023-03-18T10:32:23.373Z,14.90
2023-03-18T10:35:02.460Z,14.67
2023-03-18T10:37:43.986Z,13.93
2023-03-18T10:40:17.829Z,14.47
2023-03-18T10:42:46.991Z,13.97
2023-03-18T10:45:24.431Z,14.23
2023-03-18T10:48:00.967Z,13.43
2023-03-18T10:50:35.159Z,14.20
2023-03-18T10:53:13.654Z,13.63
2023-03-18T10:55:52.022Z,14.10
2023-03-18T10:58:20.949Z,13.37
2023-03-18T11:00:50.178Z,13.53
2023-03-18T11:03:27.976Z,13.30
2023-03-18T11:05:59.075Z,13.40
2023-03-18T11:08:34.744Z,13.37
2023-03-18T11:11:27.085Z,14.03
2023-03-18T11:13:57.175Z,13.30
2023-03-18T11:16:30.904Z,13.13
2023-03-18T11:18:59.912Z,14.70
2023-03-18T11:21:31.642Z,13.73
2023-03-18T11:24:21.104Z,13.60
2023-03-18T11:26:56.949Z,14.20
2023-03-18T11:29:29.650Z,13.90
2023-03-18T11:31:59.331Z,14.23
2023-03-18T11:34:29.385Z,14.57
2023-03-18T11:37:04.813Z,15.93
2023-03-18T11:39:37.667Z,14.93
2023-03-18T11:42:20.352Z,16.90
2023-03-18T11:44:57.595Z,16.73
2023-03-18T11:47:30.454Z,16.30
2023-03-18T11:49:58.887Z,16.63
2023-03-18T11:52:37.121Z,16.23
2023-03-18T11:55:26.552Z,16.07
2023-03-18T11:58:38.738Z,16.30
2023-03-18T12:01:14.894Z,16.50
2023-03-18T12:04:24.653Z,15.97
2023-03-18T12:07:09.041Z,15.70
2023-03-18T12:09:43.200Z,15.63
2023-03-18T12:12:30.623Z,15.97
2023-03-18T12:15:06.873Z,16.70
2023-03-18T12:17:47.528Z,15.73
2023-03-18T12:20:50.192Z,15.83
2023-03-18T12:23:33.704Z,15.53
2023-03-18T12:26:06.772Z,15.87
2023-03-18T12:28:48.610Z,16.13
2023-03-18T12:31:55.484Z,16.47
2023-03-18T12:34:44.645Z,16.60
2023-03-18T12:37:32.435Z,16.27
2023-03-18T12:40:13.784Z,16.73
2023-03-18T12:42:57.110Z,16.53
2023-03-18T12:45:28.710Z,16.70
2023-03-18T12:48:02.564Z,16.27
2023-03-18T12:50:38.276Z,16.67
2023-03-18T12:53:16.869Z,16.77
2023-03-18T12:55:47.248Z,16.90
2023-03-18T12:58:19.312Z,16.43
2023-03-18T13:00:56.146Z,16.37
2023-03-18T13:03:33.966Z,15.30
2023-03-18T13:06:10.214Z,15.67
2023-03-18T13:08:54.259Z,17.03
2023-03-18T13:11:36.165Z,18.67
2023-03-18T13:14:08.564Z,15.50
2023-03-18T13:16:39.126Z,15.30
2023-03-18T13:19:07.713Z,15.57
2023-03-18T13:22:04.074Z,16.53
2023-03-18T13:25:06.776Z,16.00
2023-03-18T13:27:55.424Z,15.17
2023-03-18T13:30:33.479Z,13.93
2023-03-18T13:33:20.990Z,14.87
2023-03-18T13:36:07.317Z,15.70
2023-03-18T13:39:10.247Z,15.10
2023-03-18T13:41:54.747Z,14.07
2023-03-18T13:44:41.330Z,15.57
2023-03-18T13:51:08.267Z,14.77
2023-03-18T13:53:51.044Z,13.60
2023-03-18T13:57:02.843Z,14.00
2023-03-18T14:00:24.131Z,14.00
2023-03-18T14:03:17.406Z,14.17
2023-03-18T14:05:49.068Z,14.10
2023-03-18T14:08:49.438Z,14.17
2023-03-18T14:11:52.381Z,14.33
2023-03-18T14:15:09.464Z,14.23
2023-03-18T14:17:49.333Z,13.60
2023-03-18T14:20:29.704Z,14.67
2023-03-18T14:23:37.176Z,13.77
2023-03-18T14:26:09.807Z,14.30
2023-03-18T14:28:46.634Z,14.77
2023-03-18T14:31:27.745Z,14.83
2023-03-18T14:34:04.600Z,15.07
2023-03-18T14:37:19.434Z,14.20
2023-03-18T14:39:51.659Z,14.83
2023-03-18T14:42:33.104Z,15.30
2023-03-18T14:45:06.775Z,15.03
2023-03-18T14:47:44.644Z,17.10
2023-03-18T14:50:23.364Z,16.10
2023-03-18T14:52:56.024Z,15.63
2023-03-18T14:55:28.295Z,15.57
2023-03-18T14:57:56.885Z,15.60
2023-03-18T15:00:26.160Z,16.10
2023-03-18T15:03:01.822Z,16.27
2023-03-18T15:05:36.371Z,15.77
2023-03-18T15:08:10.902Z,15.93
2023-03-18T15:10:40.293Z,15.50
2023-03-18T15:13:13.910Z,15.30
2023-03-18T15:15:43.137Z,16.53
2023-03-18T15:18:26.740Z,16.20
2023-03-18T15:21:01.336Z,15.90
2023-03-18T15:23:33.779Z,16.77
2023-03-18T15:26:04.134Z,15.70
2023-03-18T15:28:33.853Z,15.57
2023-03-18T15:31:05.850Z,16.60
2023-03-18T15:33:38.344Z,16.70
2023-03-18T15:36:15.140Z,16.70
2023-03-18T15:38:48.194Z,17.87
2023-03-18T15:41:18.079Z,17.03
2023-03-18T15:43:47.668Z,17.90
2023-03-18T15:46:19.462Z,19.83
2023-03-18T15:48:54.945Z,18.60
2023-03-18T15:51:31.423Z,17.00
2023-03-18T15:54:06.958Z,18.00
2023-03-18T15:56:36.835Z,17.67
2023-03-18T15:59:14.496Z,17.37
2023-03-18T16:01:44.210Z,17.30
2023-03-18T16:04:16.447Z,17.50
2023-03-18T16:06:46.850Z,17.17
2023-03-18T16:09:17.326Z,17.20
2023-03-18T16:11:49.179Z,18.20
2023-03-18T16:14:19.786Z,17.53
2023-03-18T16:16:48.801Z,17.67
2023-03-18T16:19:19.565Z,17.50
2023-03-18T16:21:49.347Z,17.53
2023-03-18T16:24:17.553Z,18.87
2023-03-18T16:26:47.068Z,18.73
2023-03-18T16:29:17.328Z,19.90
2023-03-18T16:31:46.349Z,18.47
2023-03-18T16:34:21.850Z,19.07
2023-03-18T16:36:53.607Z,18.77
2023-03-18T16:39:27.278Z,20.30
2023-03-18T16:41:58.548Z,19.13
2023-03-18T16:44:27.931Z,20.20
2023-03-18T16:46:58.609Z,20.57
2023-03-18T16:49:31.112Z,20.90
2023-03-18T16:52:02.002Z,21.93
2023-03-18T16:54:33.081Z,22.63
2023-03-18T16:57:03.558Z,23.47
2023-03-18T16:59:35.532Z,23.17
2023-03-18T17:02:04.369Z,22.00
2023-03-18T17:04:34.482Z,22.23
2023-03-18T17:07:06.105Z,23.57
2023-03-18T17:09:34.546Z,22.53
2023-03-18T17:12:05.781Z,23.63
2023-03-18T17:14:37.995Z,22.20
2023-03-18T17:17:08.940Z,23.20
2023-03-18T17:19:37.097Z,23.30
2023-03-18T17:22:20.940Z,24.50
2023-03-18T17:24:49.906Z,23.37
2023-03-18T17:27:22.188Z,23.30
2023-03-18T17:29:50.742Z,24.17
2023-03-18T17:32:19.794Z,24.80
2023-03-18T17:34:50.378Z,25.70
2023-03-18T17:37:20.940Z,25.13
2023-03-18T17:39:49.736Z,25.70
2023-03-18T17:42:29.793Z,27.03
2023-03-18T17:45:03.460Z,26.07
2023-03-18T17:47:31.896Z,27.07
2023-03-18T17:50:00.719Z,26.20
2023-03-18T17:52:30.658Z,26.50
2023-03-18T17:54:59.096Z,25.60
2023-03-18T17:57:27.362Z,25.67
2023-03-18T17:59:55.723Z,25.30
2023-03-18T18:02:25.580Z,25.07
2023-03-18T18:04:54.058Z,26.00
2023-03-18T18:07:23.972Z,27.43
2023-03-18T18:09:58.236Z,26.73
2023-03-18T18:12:26.884Z,26.03
2023-03-18T18:14:55.588Z,25.57
2023-03-18T18:17:24.368Z,25.40
2023-03-18T18:19:54.740Z,26.90
2023-03-18T18:22:26.766Z,25.90
2023-03-18T18:24:58.007Z,27.50
2023-03-18T18:27:26.796Z,26.23
2023-03-18T18:29:55.103Z,27.63
2023-03-18T18:32:24.932Z,27.23
2023-03-18T18:34:54.953Z,28.17
2023-03-18T18:37:26.804Z,27.90
2023-03-18T18:39:59.227Z,28.13
2023-03-18T18:42:27.870Z,28.90
2023-03-18T18:44:56.622Z,28.90
2023-03-18T18:47:27.395Z,29.53
2023-03-18T18:50:01.236Z,28.33
2023-03-18T18:52:30.849Z,29.50
2023-03-18T18:55:00.633Z,27.67
2023-03-18T18:57:31.192Z,28.00
2023-03-18T18:59:59.312Z,28.00
2023-03-18T19:02:31.796Z,29.60
2023-03-18T19:05:01.113Z,30.27
2023-03-18T19:07:30.378Z,29.17
2023-03-18T19:10:00.682Z,29.47
2023-03-18T19:12:29.161Z,30.47
2023-03-18T19:14:57.332Z,30.80
2023-03-18T19:17:26.506Z,29.90
2023-03-18T19:19:56.961Z,29.80
2023-03-18T19:22:26.626Z,29.57
2023-03-18T19:24:55.588Z,29.53
2023-03-18T19:27:28.242Z,31.30
2023-03-18T19:29:58.644Z,31.77
2023-03-18T19:32:27.942Z,34.03
2023-03-18T19:34:56.754Z,32.13
2023-03-18T19:37:29.240Z,32.03
2023-03-18T19:39:58.616Z,33.47
2023-03-18T19:42:28.675Z,32.57
2023-03-18T19:44:57.384Z,32.70
2023-03-18T19:47:32.342Z,32.47
2023-03-18T19:50:01.391Z,34.00
2023-03-18T19:52:30.688Z,32.57
2023-03-18T19:54:59.326Z,32.47
2023-03-18T19:57:32.853Z,34.10
2023-03-18T20:00:05.130Z,34.40
2023-03-18T20:02:35.110Z,36.00
2023-03-18T20:05:06.645Z,35.77
2023-03-18T20:07:34.903Z,34.70
2023-03-18T20:10:03.452Z,35.23
2023-03-18T20:12:36.410Z,35.00
2023-03-18T20:15:05.766Z,35.60
2023-03-18T20:17:39.295Z,35.60
2023-03-18T20:20:10.121Z,34.57
2023-03-18T20:22:42.569Z,36.53
2023-03-18T20:25:19.391Z,35.70
2023-03-18T20:27:50.812Z,36.60
2023-03-18T20:30:30.423Z,38.30
2023-03-18T20:33:00.350Z,39.30
2023-03-18T20:35:30.966Z,37.87
2023-03-18T20:38:02.238Z,37.13
2023-03-18T20:40:32.230Z,35.77
2023-03-18T20:43:02.481Z,37.40
2023-03-18T20:45:31.035Z,36.07
2023-03-18T20:47:59.428Z,40.07
2023-03-18T20:50:30.143Z,37.57
2023-03-18T20:52:59.140Z,38.87
2023-03-18T20:55:31.357Z,36.70
2023-03-18T20:58:02.428Z,37.70
2023-03-18T21:00:33.216Z,37.00
2023-03-18T21:03:03.760Z,35.70
2023-03-18T21:05:32.096Z,35.50
2023-03-18T21:08:00.448Z,35.37
2023-03-18T21:10:29.227Z,35.00
2023-03-18T21:12:57.803Z,32.80
2023-03-18T21:15:28.976Z,29.83
2023-03-18T21:17:57.200Z,31.97
2023-03-18T21:20:31.067Z,32.60
2023-03-18T21:22:59.437Z,35.47
2023-03-18T21:25:29.233Z,31.00
2023-03-18T21:27:57.890Z,31.93
2023-03-18T21:30:27.893Z,33.77
2023-03-18T21:32:56.619Z,34.73
2023-03-18T21:35:26.846Z,35.47
2023-03-18T21:37:55.533Z,37.40
2023-03-18T21:40:26.579Z,36.17
2023-03-18T21:42:54.995Z,36.77
2023-03-18T21:45:24.909Z,38.30
2023-03-18T21:47:54.412Z,36.57
2023-03-18T21:50:28.244Z,29.77
2023-03-18T21:52:59.272Z,30.93
2023-03-18T21:55:27.408Z,31.53
2023-03-18T21:57:56.243Z,32.77
2023-03-18T22:00:24.800Z,33.60
2023-03-18T22:02:54.903Z,31.67
2023-03-18T22:05:25.598Z,32.77
2023-03-18T22:07:54.057Z,32.80
2023-03-18T22:10:24.384Z,26.40
2023-03-18T22:12:52.868Z,31.80
2023-03-18T22:15:35.977Z,30.70
2023-03-18T22:18:07.417Z,32.70
2023-03-18T22:20:36.668Z,28.90
2023-03-18T22:23:20.152Z,16.67
2023-03-18T22:25:49.889Z,10.43
2023-03-18T22:28:18.782Z,12.23
2023-03-18T22:30:52.189Z,10.97
2023-03-18T22:33:25.934Z,15.20
2023-03-18T22:35:54.781Z,16.87
2023-03-18T22:38:24.657Z,18.07
2023-03-18T22:40:55.832Z,12.73
2023-03-18T22:43:30.509Z,8.07
2023-03-18T22:45:59.367Z,13.23
2023-03-18T22:48:29.822Z,9.87
2023-03-18T22:51:01.418Z,9.57
2023-03-18T22:53:31.902Z,8.07
2023-03-18T22:56:02.769Z,8.70
2023-03-18T22:58:31.020Z,7.07
2023-03-18T23:00:59.582Z,6.17
2023-03-18T23:03:31.868Z,5.10
2023-03-18T23:06:01.994Z,5.20
2023-03-18T23:08:31.304Z,3.30
2023-03-18T23:11:02.987Z,3.87
2023-03-18T23:13:34.538Z,6.80
2023-03-18T23:16:04.464Z,8.27
2023-03-18T23:18:34.357Z,6.80
2023-03-18T23:21:02.803Z,8.37
2023-03-18T23:23:31.895Z,7.70
2023-03-18T23:26:00.111Z,8.60
2023-03-18T23:28:28.851Z,6.20
2023-03-18T23:30:57.279Z,5.20
2023-03-18T23:33:25.595Z,5.70
2023-03-18T23:35:55.529Z,6.33
2023-03-18T23:38:23.903Z,5.00
2023-03-18T23:40:52.414Z,5.67
2023-03-18T23:43:22.332Z,6.30
2023-03-18T23:45:51.257Z,7.13
2023-03-18T23:48:19.414Z,5.50
2023-03-18T23:50:47.782Z,4.43
2023-03-18T23:53:17.809Z,6.00
2023-03-18T23:55:46.367Z,4.50
2023-03-18T23:58:14.733Z,5.00
